Nearby METAR Reports

 

KRDU - Raleigh/Durham, North Carolina, USA
Distance from station: NNW 20mi, 33km
Updated: Mon, 09-Dec-2019 9:51am EST
Mist, Overcast
Mist, Overcast
 Wind from W
Wind: W 3 mph , 6 km/h
Temperature: 46°F , 8°C
Dew Point: 45°F , 7°C
Humidity: 93%
Barometer: 30.14 inHg , 1020.7 hPa
Summary: Mist
Clouds: Overcast
Visibility: 1/2 mile , 0.8 km
Cloud details: Overcast 200 ft
2019/12/09 14:51 KRDU 091451Z 26003KT 1/2SM BR OVC002 08/07 A3014 RMK AO2 SFC VIS 3/4 SLP206 T00780072 55005 RVRNO
KJNX - Smithfield Johns, North Carolina, USA
Distance from station: ESE 17mi, 28km
Updated: Mon, 09-Dec-2019 10:35am EST
Mist, Overcast
Mist, Overcast
 Wind from calm
Wind: Calm
Temperature: 50°F , 10°C
Dew Point: 50°F , 10°C
Humidity: 100%
Barometer: 30.14 inHg , 1020.7 hPa
Summary: Mist
Clouds: Overcast
Visibility: 2 1/2 miles , 4 km
Cloud details: Overcast 300 ft
2019/12/09 15:35 KJNX 091535Z AUTO 00000KT 2 1/2SM BR OVC003 10/10 A3014 RMK AO2
 
KLHZ - Louisburg/Frankl, North Carolina, USA
Distance from station: NE 33mi, 54km
Updated: Mon, 09-Dec-2019 10:15am EST
Mist, Overcast
Mist, Overcast
 Wind from calm
Wind: Calm
Temperature: 45°F , 7°C
Dew Point: 45°F , 7°C
Humidity: 100%
Barometer: 30.17 inHg , 1021.7 hPa
Summary: Mist
Clouds: Overcast
Visibility: 3/4 mile , 1.2 km
Cloud details: Overcast 100 ft
2019/12/09 15:15 KLHZ 091515Z AUTO 00000KT 3/4SM BR OVC001 07/07 A3017 RMK AO2
KPOB - Pope Afb, North Carolina, USA
Distance from station: SSW 37mi, 59km
Updated: Mon, 09-Dec-2019 9:56am EST
Overcast
Overcast
 Wind from SSE
Wind: SSE 5 mph , 7 km/h
Temperature: 48°F , 9°C
Wind Chill: 46°F , 8°C
Dew Point: 48°F , 9°C
Humidity: 100%
Barometer: 30.13 inHg , 1020.3 hPa
Clouds: Overcast
Visibility: 10 miles , 16 km
Cloud details: Overcast 300 ft
2019/12/09 14:56 KPOB 091456Z AUTO 15004KT 10SM OVC003 09/09 A3013 RMK AO2 CIG 002 RWY05 SLP207 T00910091 $
 
KSCR - Siler City, North Carolina, USA
Distance from station: W 47mi, 75km
Updated: Mon, 09-Dec-2019 10:15am EST
Overcast
Overcast
 Wind from calm
Wind: Calm
Temperature: 45°F , 7°C
Dew Point: 41°F , 5°C
Humidity: 87%
Barometer: 30.12 inHg , 1020 hPa
Clouds: Overcast
Visibility: 10 miles , 16 km
Cloud details: Overcast 600 ft
2019/12/09 15:15 KSCR 091515Z AUTO 00000KT 10SM OVC006 07/05 A3012 RMK AO2 T00700051
KTDF - Roxboro Person, North Carolina, USA
Distance from station: NNW 49mi, 79km
Updated: Mon, 09-Dec-2019 10:15am EST
Overcast
Overcast
 Wind from calm
Wind: Calm
Temperature: 43°F , 6°C
Dew Point: 41°F , 5°C
Humidity: 93%
Barometer: 30.14 inHg , 1020.7 hPa
Clouds: Overcast
Visibility: 10 miles , 16 km
Cloud details: Overcast 700 ft
2019/12/09 15:15 KTDF 091515Z AUTO 00000KT 10SM OVC007 06/05 A3014 RMK AO2
 
KSOP - Southern Pines, North Carolina, USA
Distance from station: SW 50mi, 80km
Updated: Mon, 09-Dec-2019 10:17am EST
Overcast
Overcast
 Wind from calm
Wind: Calm
Temperature: 46°F , 8°C
Dew Point: 46°F , 8°C
Humidity: 100%
Barometer: 30.14 inHg , 1020.7 hPa
Clouds: Overcast
Visibility: 9 miles , 14 km
Cloud details: Overcast 400 ft
2019/12/09 15:17 KSOP 091517Z AUTO 00000KT 9SM OVC004 08/08 A3014 RMK AO2
KHNZ - Henderson/Oxford, North Carolina, USA
Distance from station: N 52mi, 84km
Updated: Mon, 09-Dec-2019 10:15am EST
Mist, Overcast
Mist, Overcast
 Wind from calm
Wind: Calm
Temperature: 41°F , 5°C
Dew Point: 41°F , 5°C
Humidity: 100%
Barometer: 30.13 inHg , 1020.3 hPa
Summary: Mist
Clouds: Overcast
Visibility: 1 mile , 2 km
Cloud details: Overcast 100 ft
2019/12/09 15:15 KHNZ 091515Z AUTO 00000KT 1SM BR OVC001 05/05 A3013 RMK AO2 T00520051
 
KBUY - Burlington, North Carolina, USA
Distance from station: NW 54mi, 86km
Updated: Mon, 09-Dec-2019 9:54am EST
Overcast
Overcast
 Wind from calm
Wind: Calm
Temperature: 45°F , 7°C
Dew Point: 37°F , 3°C
Humidity: 76%
Barometer: 30.12 inHg , 1020 hPa
Clouds: Overcast
Visibility: 10 miles , 16 km
Cloud details: Overcast 600 ft
2019/12/09 14:54 KBUY 091454Z AUTO 00000KT 10SM OVC006 07/03 A3012 RMK AO2 SLP202 60000 T00670033 56005
KTNB - Boone Watauga Ct, North Carolina, USA
Distance from station: SE 2mi, 3km
Updated: Mon, 09-Dec-2019 10:15am EST
Rain, Mostly cloudy
Rain, Mostly cloudy
 Wind from SSW
Wind: SSW 10 mph , 17 km/h, Gust: 17 mph , 28 km/h
Temperature: 45°F , 7°C
Wind Chill: 40°F , 4°C
Dew Point: 45°F , 7°C
Humidity: 100%
Barometer: 30.04 inHg , 1017.3 hPa
Summary: Rain
Clouds: Mostly cloudy
Visibility: 4 miles , 6 km
Cloud details: Mostly cloudy 1000 ft
Mostly cloudy 1600 ft
Mostly cloudy 4200 ft
2019/12/09 15:15 KTNB 091515Z AUTO 20009G15KT 4SM RA BKN010 BKN016 BKN042 07/07 A3004 RMK AO2 P0001 T00740069
 
KGEV - Jefferson, North Carolina, USA
Distance from station: NE 21mi, 33km
Updated: Mon, 09-Dec-2019 10:15am EST
Overcast
Overcast
 Wind from S
Wind: S 8 mph , 13 km/h, Gust: 16 mph , 26 km/h
Temperature: 46°F , 8°C
Wind Chill: 42°F , 6°C
Dew Point: 46°F , 8°C
Humidity: 100%
Barometer: 30.03 inHg , 1016.9 hPa
Clouds: Overcast
Visibility: 10 miles , 16 km
Cloud details: Partly cloudy 1100 ft
Mostly cloudy 1400 ft
Overcast 1900 ft
2019/12/09 15:15 KGEV 091515Z AUTO 17007G14KT 10SM SCT011 BKN014 OVC019 08/08 A3003 RMK AO2 P0001 T00770077
KFQD - Rutherfordton, North Carolina, USA
Distance from station: SSW 57mi, 92km
Updated: Mon, 09-Dec-2019 10:15am EST
Drizzle, Overcast
Drizzle, Overcast
 Wind from calm
Wind: Calm
Temperature: 37°F , 3°C
Dew Point: 37°F , 3°C
Humidity: 100%
Barometer: 30.14 inHg , 1020.7 hPa
Summary: Drizzle
Clouds: Overcast
Visibility: 5 miles , 8 km
Cloud details: Partly cloudy 400 ft
Partly cloudy 1100 ft
Overcast 1600 ft
2019/12/09 15:15 KFQD 091515Z AUTO 00000KT 5SM DZ SCT004 SCT011 OVC016 03/03 A3014 RMK AO2 P0001
 
KAVL - Asheville, North Carolina, USA
Distance from station: SW 72mi, 117km
Updated: Mon, 09-Dec-2019 10:30am EST
Overcast
Overcast
 Wind from SE
Wind: SE 7 mph , 11 km/h
Temperature: 45°F , 7°C
Wind Chill: 41°F , 5°C
Dew Point: 43°F , 6°C
Humidity: 93%
Barometer: 30.06 inHg , 1017.9 hPa
Clouds: Overcast
Visibility: 10 miles , 16 km
Cloud details: Few Clouds 1300 ft
Overcast 2000 ft
2019/12/09 15:30 KAVL 091530Z 13006KT 10SM FEW013 OVC020 07/06 A3006 RMK AO2 RAB1459E18 P0001 T00720061